createdAt,value
2018-01-05T00:02:16.210Z,9.30
2018-01-05T00:04:43.759Z,9.20
2018-01-05T00:07:11.286Z,9.20
2018-01-05T00:09:39.792Z,9.10
2018-01-05T00:12:07.322Z,9.10
2018-01-05T00:14:34.853Z,9.10
2018-01-05T00:17:02.425Z,9.20
2018-01-05T00:19:30.932Z,9.20
2018-01-05T00:21:59.255Z,9.00
2018-01-05T00:24:26.783Z,9.00
2018-01-05T00:26:54.347Z,9.10
2018-01-05T00:29:21.875Z,9.10
2018-01-05T00:31:49.400Z,9.10
2018-01-05T00:34:17.013Z,9.10
2018-01-05T00:36:45.625Z,9.10
2018-01-05T00:39:13.171Z,9.10
2018-01-05T00:41:40.706Z,9.00
2018-01-05T00:44:08.252Z,8.90
2018-01-05T00:46:36.748Z,8.80
2018-01-05T00:49:04.272Z,8.80
2018-01-05T00:51:31.824Z,8.60
2018-01-05T00:53:59.346Z,8.50
2018-01-05T00:56:26.891Z,8.50
2018-01-05T00:58:54.433Z,8.60
2018-01-05T01:01:21.987Z,8.50
2018-01-05T01:03:49.507Z,8.40
2018-01-05T01:06:18.017Z,8.40
2018-01-05T01:08:45.545Z,8.20
2018-01-05T01:11:13.071Z,8.20
2018-01-05T01:13:40.640Z,8.30
2018-01-05T01:16:08.164Z,8.30
2018-01-05T01:18:35.725Z,8.30
2018-01-05T01:21:03.242Z,8.50
2018-01-05T01:23:30.769Z,8.50
2018-01-05T01:25:58.327Z,8.50
2018-01-05T01:28:25.850Z,8.40
2018-01-05T01:30:53.399Z,8.20
2018-01-05T01:33:21.679Z,8.20
2018-01-05T01:35:49.243Z,8.20
2018-01-05T01:38:16.758Z,8.10
2018-01-05T01:40:44.340Z,8.20
2018-01-05T01:43:11.866Z,8.20
2018-01-05T01:45:39.395Z,8.20
2018-01-05T01:48:06.939Z,8.10
2018-01-05T01:50:34.478Z,8.00
2018-01-05T01:53:02.029Z,8.00
2018-01-05T01:55:29.547Z,8.10
2018-01-05T01:57:57.106Z,8.20
2018-01-05T02:00:24.627Z,8.20
2018-01-05T02:02:52.153Z,8.30
2018-01-05T02:05:21.675Z,8.30
2018-01-05T02:07:49.199Z,8.30
2018-01-05T02:10:16.763Z,8.10
2018-01-05T02:12:44.300Z,8.10
2018-01-05T02:15:11.826Z,8.00
2018-01-05T02:17:39.393Z,7.90
2018-01-05T02:20:07.888Z,8.00
2018-01-05T02:22:35.439Z,8.10
2018-01-05T02:25:03.733Z,8.30
2018-01-05T02:27:31.296Z,8.20
2018-01-05T02:29:58.835Z,8.30
2018-01-05T02:32:26.363Z,8.50
2018-01-05T02:34:53.918Z,8.50
2018-01-05T02:37:21.448Z,8.60
2018-01-05T02:39:50.958Z,8.80
2018-01-05T02:42:18.490Z,8.90
2018-01-05T02:44:46.052Z,8.90
2018-01-05T02:47:13.591Z,8.80
2018-01-05T02:49:41.111Z,8.90
2018-01-05T02:52:08.658Z,9.00
2018-01-05T02:54:36.183Z,9.00
2018-01-05T02:57:03.770Z,9.00
2018-01-05T02:59:31.295Z,9.00
2018-01-05T03:01:59.699Z,9.20
2018-01-05T03:04:27.259Z,9.20
2018-01-05T03:06:55.804Z,9.30
2018-01-05T03:09:24.128Z,9.40
2018-01-05T03:11:51.653Z,9.40
2018-01-05T03:14:20.003Z,9.40
2018-01-05T03:16:47.582Z,9.40
2018-01-05T03:19:15.278Z,9.50
2018-01-05T03:21:42.859Z,9.50
2018-01-05T03:24:10.390Z,9.40
2018-01-05T03:26:37.935Z,9.50
2018-01-05T03:29:05.462Z,9.40
2018-01-05T03:31:33.999Z,9.40
2018-01-05T03:34:01.552Z,9.40
2018-01-05T03:36:29.116Z,9.50
2018-01-05T03:38:56.685Z,9.50
2018-01-05T03:41:24.243Z,9.50
2018-01-05T03:43:51.812Z,9.60
2018-01-05T03:46:19.350Z,9.60
2018-01-05T03:48:46.916Z,9.50
2018-01-05T03:51:14.454Z,9.50
2018-01-05T03:53:41.974Z,9.60
2018-01-05T03:56:11.220Z,9.70
2018-01-05T03:58:38.746Z,9.60
2018-01-05T04:01:07.071Z,9.70
2018-01-05T04:03:34.593Z,9.70
2018-01-05T04:06:03.152Z,9.70
2018-01-05T04:08:30.680Z,9.80
2018-01-05T04:10:58.234Z,9.80
2018-01-05T04:13:25.758Z,9.90
2018-01-05T04:15:53.295Z,9.90
2018-01-05T04:18:22.792Z,9.90
2018-01-05T04:20:50.314Z,10.00
2018-01-05T04:23:17.874Z,10.00
2018-01-05T04:25:45.407Z,10.00
2018-01-05T04:28:12.963Z,10.00
2018-01-05T04:30:41.439Z,10.00
2018-01-05T04:33:08.982Z,10.10
2018-01-05T04:35:37.455Z,10.10
2018-01-05T04:38:05.949Z,10.10
2018-01-05T04:40:33.503Z,10.20
2018-01-05T04:43:01.791Z,10.30
2018-01-05T04:45:30.290Z,10.30
2018-01-05T04:47:57.834Z,10.30
2018-01-05T04:50:26.363Z,10.30
2018-01-05T04:52:54.877Z,10.30
2018-01-05T04:55:22.438Z,10.30
2018-01-05T04:57:50.724Z,10.30
2018-01-05T05:00:19.014Z,10.40
2018-01-05T05:02:46.575Z,10.30
2018-01-05T05:05:14.103Z,10.40
2018-01-05T05:07:41.652Z,10.50
2018-01-05T05:10:09.187Z,10.50
2018-01-05T05:12:36.742Z,10.50
2018-01-05T05:15:04.377Z,10.70
2018-01-05T05:17:31.928Z,10.60
2018-01-05T05:19:59.457Z,10.60
2018-01-05T05:22:27.015Z,10.70
2018-01-05T05:24:55.307Z,10.60
2018-01-05T05:27:23.615Z,10.60
2018-01-05T05:29:51.292Z,10.60
2018-01-05T05:32:19.635Z,10.60
2018-01-05T05:34:47.185Z,10.60
2018-01-05T05:37:14.711Z,10.60
2018-01-05T05:39:43.217Z,10.60
2018-01-05T05:42:10.752Z,10.70
2018-01-05T05:44:38.314Z,10.70
2018-01-05T05:47:05.846Z,10.80
2018-01-05T05:49:35.374Z,10.80
2018-01-05T05:52:02.910Z,10.80
2018-01-05T05:54:30.439Z,10.80
2018-01-05T05:56:58.007Z,10.80
2018-01-05T05:59:25.539Z,10.80
2018-01-05T06:01:53.102Z,10.80
2018-01-05T06:04:20.641Z,10.80
2018-01-05T06:06:49.947Z,10.80
2018-01-05T06:09:18.241Z,10.90
2018-01-05T06:11:45.811Z,10.90
2018-01-05T06:14:13.334Z,10.90
2018-01-05T06:16:40.894Z,10.90
2018-01-05T06:19:09.186Z,10.90
2018-01-05T06:21:36.731Z,10.90
2018-01-05T06:24:06.241Z,10.90
2018-01-05T06:26:33.779Z,10.90
2018-01-05T06:29:01.333Z,11.00
2018-01-05T06:31:28.872Z,10.90
2018-01-05T06:33:56.431Z,11.00
2018-01-05T06:36:23.963Z,11.00
2018-01-05T06:38:51.518Z,11.00
2018-01-05T06:41:19.043Z,11.00
2018-01-05T06:43:47.337Z,11.00
2018-01-05T06:46:14.896Z,11.00
2018-01-05T06:48:42.428Z,11.00
2018-01-05T06:51:11.910Z,11.00
2018-01-05T06:53:39.427Z,11.00
2018-01-05T06:56:07.003Z,11.00
2018-01-05T06:58:34.530Z,11.00
2018-01-05T07:01:02.847Z,11.00
2018-01-05T07:03:30.369Z,10.90
2018-01-05T07:05:57.932Z,11.10
2018-01-05T07:08:25.455Z,11.20
2018-01-05T07:10:52.990Z,11.30
2018-01-05T07:13:22.490Z,11.30
2018-01-05T07:15:50.060Z,11.30
2018-01-05T07:18:17.608Z,11.30
2018-01-05T07:20:45.140Z,11.40
2018-01-05T07:23:12.711Z,11.50
2018-01-05T07:25:40.231Z,11.50
2018-01-05T07:28:08.529Z,11.50
2018-01-05T07:30:36.081Z,11.50
2018-01-05T07:33:03.611Z,11.60
2018-01-05T07:35:31.177Z,11.60
2018-01-05T07:37:59.478Z,11.80
2018-01-05T07:40:27.036Z,11.80
2018-01-05T07:42:54.564Z,11.90
2018-01-05T07:45:24.019Z,12.00
2018-01-05T07:47:51.541Z,12.00
2018-01-05T07:50:19.834Z,12.10
2018-01-05T07:52:47.387Z,12.00
2018-01-05T07:55:14.919Z,12.10
2018-01-05T07:57:43.238Z,12.20
2018-01-05T08:00:10.791Z,12.10
2018-01-05T08:02:38.358Z,12.20
2018-01-05T08:05:06.267Z,12.10
2018-01-05T08:07:33.814Z,12.10
2018-01-05T08:10:01.335Z,12.10
2018-01-05T08:12:29.839Z,12.10
2018-01-05T08:14:57.369Z,12.10
2018-01-05T08:17:24.899Z,12.10
2018-01-05T08:19:53.220Z,12.30
2018-01-05T08:22:20.743Z,12.30
2018-01-05T08:24:51.031Z,12.50
2018-01-05T08:27:18.553Z,12.40
2018-01-05T08:29:46.102Z,12.60
2018-01-05T08:32:14.566Z,12.70
2018-01-05T08:34:42.888Z,12.90
2018-01-05T08:37:10.430Z,12.90
2018-01-05T08:39:37.950Z,13.00
2018-01-05T08:42:06.278Z,13.20
2018-01-05T08:44:33.811Z,13.20
2018-01-05T08:47:01.354Z,13.30
2018-01-05T08:49:29.840Z,13.40
2018-01-05T08:51:57.387Z,13.30
2018-01-05T08:54:25.684Z,13.30
2018-01-05T08:56:53.259Z,13.30
2018-01-05T08:59:20.786Z,13.30
2018-01-05T09:01:48.306Z,13.30
2018-01-05T09:04:15.855Z,13.40
2018-01-05T09:06:43.599Z,13.40
2018-01-05T09:09:12.091Z,13.40
2018-01-05T09:11:39.620Z,13.40
2018-01-05T09:14:07.179Z,13.40
2018-01-05T09:16:34.709Z,13.50
2018-01-05T09:19:02.263Z,13.50
2018-01-05T09:21:29.797Z,13.60
2018-01-05T09:23:59.323Z,13.70
2018-01-05T09:26:27.647Z,13.80
2018-01-05T09:28:55.217Z,13.80
2018-01-05T09:31:22.747Z,13.80
2018-01-05T09:33:51.059Z,14.00
2018-01-05T09:36:18.615Z,13.90
2018-01-05T09:38:46.140Z,14.10
2018-01-05T09:41:14.504Z,14.30
2018-01-05T09:43:42.818Z,14.30
2018-01-05T09:46:10.374Z,14.30
2018-01-05T09:48:37.895Z,14.30
2018-01-05T09:51:05.690Z,14.40
2018-01-05T09:53:33.217Z,14.30
2018-01-05T09:56:02.054Z,14.30
2018-01-05T09:58:29.611Z,14.30
2018-01-05T10:00:57.136Z,14.40
2018-01-05T10:03:24.700Z,14.40
2018-01-05T10:05:53.187Z,14.50
2018-01-05T10:08:21.503Z,14.60
2018-01-05T10:10:49.043Z,14.60
2018-01-05T10:13:16.603Z,14.70
2018-01-05T10:15:44.135Z,14.80
2018-01-05T10:18:11.686Z,15.00
2018-01-05T10:20:39.972Z,14.90
2018-01-05T10:23:08.291Z,14.90
2018-01-05T10:25:35.814Z,14.90
2018-01-05T10:28:03.364Z,15.10
2018-01-05T10:30:30.912Z,15.10
2018-01-05T10:32:58.451Z,15.10
2018-01-05T10:35:26.030Z,15.10
2018-01-05T10:37:53.579Z,15.00
2018-01-05T10:40:21.167Z,14.80
2018-01-05T10:42:48.696Z,14.80
2018-01-05T10:45:16.253Z,14.80
2018-01-05T10:47:44.619Z,14.80
2018-01-05T10:50:12.166Z,14.80
2018-01-05T10:52:39.701Z,14.70
2018-01-05T10:55:07.270Z,14.80
2018-01-05T10:57:34.870Z,15.00
2018-01-05T11:00:03.362Z,15.20
2018-01-05T11:02:30.907Z,15.30
2018-01-05T11:04:58.723Z,15.30
2018-01-05T11:07:26.290Z,15.30
2018-01-05T11:09:54.006Z,15.30
2018-01-05T11:12:21.601Z,15.30
2018-01-05T11:14:49.413Z,15.50
2018-01-05T11:17:17.174Z,15.50
2018-01-05T11:19:44.895Z,15.30
2018-01-05T11:22:12.427Z,15.10
2018-01-05T11:24:40.865Z,15.00
2018-01-05T11:27:08.412Z,15.00
2018-01-05T11:29:35.960Z,14.80
2018-01-05T11:32:03.920Z,14.60
2018-01-05T11:34:31.477Z,14.60
2018-01-05T11:36:59.006Z,14.60
2018-01-05T11:39:27.405Z,14.50
2018-01-05T11:41:56.254Z,14.50
2018-01-05T11:44:25.771Z,14.50
2018-01-05T11:46:54.772Z,14.30
2018-01-05T11:49:22.319Z,14.30
2018-01-05T11:51:49.877Z,14.30
2018-01-05T11:54:17.416Z,14.40
2018-01-05T11:56:45.187Z,14.40
2018-01-05T11:59:12.710Z,14.40
2018-01-05T12:01:42.435Z,14.30
2018-01-05T12:04:10.259Z,14.30
2018-01-05T12:06:37.815Z,14.20
2018-01-05T12:09:06.283Z,14.20
2018-01-05T12:11:33.842Z,14.20
2018-01-05T12:14:01.734Z,14.20
2018-01-05T12:16:29.646Z,14.10
2018-01-05T12:18:57.243Z,14.10
2018-01-05T12:21:26.497Z,14.00
2018-01-05T12:23:54.049Z,14.00
2018-01-05T12:26:21.812Z,13.90
2018-01-05T12:28:49.658Z,13.90
2018-01-05T12:31:17.251Z,13.90
2018-01-05T12:33:44.811Z,13.80
2018-01-05T12:36:12.389Z,13.80
2018-01-05T12:38:40.917Z,13.70
2018-01-05T12:41:08.566Z,13.70
2018-01-05T12:43:36.227Z,13.70
2018-01-05T12:46:04.006Z,13.60
2018-01-05T12:48:31.544Z,13.40
2018-01-05T12:50:59.118Z,13.30
2018-01-05T12:53:27.681Z,13.30
2018-01-05T12:55:55.367Z,13.10
2018-01-05T12:58:23.028Z,13.10
2018-01-05T13:00:50.617Z,13.10
2018-01-05T13:03:18.146Z,13.00
2018-01-05T13:05:45.963Z,13.00
2018-01-05T13:08:14.571Z,13.00
2018-01-05T13:10:42.099Z,13.00
2018-01-05T13:13:09.655Z,13.00
2018-01-05T13:15:37.207Z,13.10
2018-01-05T13:18:04.772Z,13.20
2018-01-05T13:20:32.394Z,13.20
2018-01-05T13:22:59.978Z,13.20
2018-01-05T13:25:27.506Z,13.20
2018-01-05T13:27:56.098Z,13.30
2018-01-05T13:30:23.659Z,13.30
2018-01-05T13:32:51.192Z,13.20
2018-01-05T13:35:18.742Z,13.20
2018-01-05T13:37:46.264Z,13.20
2018-01-05T13:40:14.797Z,13.30
2018-01-05T13:42:42.471Z,13.20
2018-01-05T13:45:10.083Z,13.20
2018-01-05T13:47:37.611Z,13.20
2018-01-05T13:50:06.094Z,13.20
2018-01-05T13:52:33.617Z,13.30
2018-01-05T13:55:01.191Z,13.30
2018-01-05T13:57:30.081Z,13.30
2018-01-05T13:59:57.756Z,13.30
2018-01-05T14:02:25.339Z,13.30
2018-01-05T14:04:53.984Z,13.40
2018-01-05T14:07:21.666Z,13.40
2018-01-05T14:09:50.181Z,13.40
2018-01-05T14:12:18.658Z,13.30
2018-01-05T14:14:48.116Z,13.30
2018-01-05T14:17:15.857Z,13.30
2018-01-05T14:19:43.434Z,13.30
2018-01-05T14:22:11.931Z,13.30
2018-01-05T14:24:39.491Z,13.40
2018-01-05T14:27:07.036Z,13.30
2018-01-05T14:29:34.596Z,13.30
2018-01-05T14:32:02.128Z,13.30
2018-01-05T14:34:29.699Z,13.30
2018-01-05T14:36:57.246Z,13.30
2018-01-05T14:39:25.546Z,13.30
2018-01-05T14:41:53.107Z,13.20
2018-01-05T14:44:20.639Z,13.20
2018-01-05T14:46:48.190Z,13.20
2018-01-05T14:49:15.721Z,13.20
2018-01-05T14:51:43.270Z,13.20
2018-01-05T14:54:10.798Z,13.20
2018-01-05T14:56:38.351Z,13.10
2018-01-05T14:59:05.887Z,13.10
2018-01-05T15:01:36.366Z,13.10
2018-01-05T15:04:03.896Z,13.10
2018-01-05T15:06:31.433Z,13.10
2018-01-05T15:08:59.759Z,13.10
2018-01-05T15:11:27.285Z,13.00
2018-01-05T15:13:54.942Z,13.00
2018-01-05T15:16:25.832Z,13.00
2018-01-05T15:18:53.383Z,12.90
2018-01-05T15:21:20.921Z,12.70
2018-01-05T15:23:48.489Z,12.60
2018-01-05T15:26:16.015Z,12.50
2018-01-05T15:28:43.581Z,12.40
2018-01-05T15:31:11.119Z,12.30
2018-01-05T15:33:39.406Z,12.10
2018-01-05T15:36:06.974Z,12.10
2018-01-05T15:38:35.481Z,12.10
2018-01-05T15:41:03.050Z,12.00
2018-01-05T15:43:30.571Z,11.90
2018-01-05T15:45:58.130Z,12.00
2018-01-05T15:48:26.639Z,11.90
2018-01-05T15:50:54.200Z,11.90
2018-01-05T15:53:21.725Z,11.80
2018-01-05T15:55:49.255Z,11.80
2018-01-05T15:58:16.807Z,11.70
2018-01-05T16:00:44.339Z,11.70
2018-01-05T16:03:11.895Z,11.70
2018-01-05T16:05:39.414Z,11.70
2018-01-05T16:08:06.967Z,11.60
2018-01-05T16:10:35.259Z,11.60
2018-01-05T16:13:02.809Z,11.60
2018-01-05T16:15:31.278Z,11.60
2018-01-05T16:17:59.568Z,11.60
2018-01-05T16:20:27.116Z,11.60
2018-01-05T16:22:55.446Z,11.60
2018-01-05T16:25:23.001Z,11.60
2018-01-05T16:27:50.535Z,11.60
2018-01-05T16:30:18.096Z,11.50
2018-01-05T16:32:45.633Z,11.50
2018-01-05T16:35:14.926Z,11.50
2018-01-05T16:37:42.455Z,11.50
2018-01-05T16:40:09.996Z,11.50
2018-01-05T16:42:37.555Z,11.60
2018-01-05T16:45:05.932Z,11.60
2018-01-05T16:47:33.481Z,11.60
2018-01-05T16:50:01.011Z,11.60
2018-01-05T16:52:28.560Z,11.60
2018-01-05T16:54:56.845Z,11.40
2018-01-05T16:57:24.414Z,11.40
2018-01-05T16:59:51.949Z,11.40
2018-01-05T17:02:20.773Z,11.40
2018-01-05T17:04:48.304Z,11.30
2018-01-05T17:07:16.605Z,11.30
2018-01-05T17:09:44.150Z,11.30
2018-01-05T17:12:11.666Z,11.30
2018-01-05T17:14:39.223Z,11.10
2018-01-05T17:17:07.872Z,11.10
2018-01-05T17:19:35.471Z,11.10
2018-01-05T17:22:03.003Z,11.10
2018-01-05T17:24:30.547Z,11.10
2018-01-05T17:26:58.135Z,11.10
2018-01-05T17:29:25.700Z,11.10
2018-01-05T17:31:54.020Z,11.10
2018-01-05T17:34:21.586Z,11.10
2018-01-05T17:36:49.604Z,11.10
2018-01-05T17:39:17.123Z,11.00
2018-01-05T17:41:44.681Z,11.00
2018-01-05T17:44:12.285Z,10.90
2018-01-05T17:46:39.861Z,10.90
2018-01-05T17:49:08.157Z,10.90
2018-01-05T17:51:35.724Z,10.90
2018-01-05T17:54:03.252Z,10.80
2018-01-05T17:56:31.591Z,10.80
2018-01-05T17:59:01.110Z,10.80
2018-01-05T18:01:28.674Z,10.70
2018-01-05T18:03:57.004Z,10.60
2018-01-05T18:06:24.527Z,10.50
2018-01-05T18:08:52.083Z,10.50
2018-01-05T18:11:20.562Z,10.50
2018-01-05T18:13:48.119Z,10.50
2018-01-05T18:16:17.856Z,10.50
2018-01-05T18:18:45.456Z,10.60
2018-01-05T18:21:14.093Z,10.60
2018-01-05T18:23:41.646Z,10.60
2018-01-05T18:26:09.196Z,10.60
2018-01-05T18:28:36.720Z,10.60
2018-01-05T18:31:04.288Z,10.60
2018-01-05T18:33:31.820Z,10.50
2018-01-05T18:35:59.373Z,10.40
2018-01-05T18:38:26.898Z,10.40
2018-01-05T18:40:54.459Z,10.40
2018-01-05T18:43:21.999Z,10.30
2018-01-05T18:45:49.559Z,10.30
2018-01-05T18:48:17.090Z,10.30
2018-01-05T18:50:46.592Z,10.30
2018-01-05T18:53:14.112Z,10.40
2018-01-05T18:55:41.659Z,10.30
2018-01-05T18:58:09.971Z,10.40
2018-01-05T19:00:37.499Z,10.40
2018-01-05T19:03:06.117Z,10.40
2018-01-05T19:05:33.657Z,10.10
2018-01-05T19:08:01.231Z,10.00
2018-01-05T19:10:28.767Z,9.90
2018-01-05T19:12:57.087Z,9.90
2018-01-05T19:15:24.628Z,9.90
2018-01-05T19:17:52.187Z,10.00
2018-01-05T19:20:19.714Z,10.00
2018-01-05T19:22:47.303Z,10.00
2018-01-05T19:25:15.852Z,10.00
2018-01-05T19:27:44.157Z,10.10
2018-01-05T19:30:11.727Z,10.10
2018-01-05T19:32:39.251Z,10.20
2018-01-05T19:35:06.827Z,10.00
2018-01-05T19:37:34.383Z,10.10
2018-01-05T19:40:01.898Z,10.10
2018-01-05T19:42:31.387Z,9.60
2018-01-05T19:44:58.903Z,9.40
2018-01-05T19:47:26.447Z,9.40
2018-01-05T19:49:53.967Z,9.40
2018-01-05T19:52:21.562Z,9.30
2018-01-05T19:54:50.047Z,9.30
2018-01-05T19:57:20.308Z,9.30
2018-01-05T19:59:47.828Z,9.30
2018-01-05T20:02:16.127Z,9.50
2018-01-05T20:04:43.672Z,9.40
2018-01-05T20:07:11.186Z,9.60
2018-01-05T20:09:38.728Z,9.60
2018-01-05T20:12:07.197Z,9.60
2018-01-05T20:14:34.746Z,9.60
2018-01-05T20:17:02.270Z,9.60
2018-01-05T20:19:31.551Z,9.50
2018-01-05T20:21:59.083Z,9.50
2018-01-05T20:24:26.606Z,9.60
2018-01-05T20:26:54.151Z,9.60
2018-01-05T20:29:21.676Z,9.40
2018-01-05T20:31:49.230Z,9.20
2018-01-05T20:34:16.747Z,9.30
2018-01-05T20:36:44.320Z,9.50
2018-01-05T20:39:11.842Z,9.50
2018-01-05T20:41:39.395Z,9.40
2018-01-05T20:44:07.679Z,9.50
2018-01-05T20:46:35.262Z,9.50
2018-01-05T20:49:02.786Z,9.50
2018-01-05T20:51:32.987Z,9.60
2018-01-05T20:54:00.583Z,9.50
2018-01-05T20:56:28.249Z,9.50
2018-01-05T20:58:55.889Z,9.60
2018-01-05T21:01:23.422Z,9.60
2018-01-05T21:03:50.968Z,9.70
2018-01-05T21:06:18.495Z,9.60
2018-01-05T21:08:46.050Z,9.60
2018-01-05T21:11:13.571Z,9.60
2018-01-05T21:13:41.100Z,9.50
2018-01-05T21:16:08.659Z,9.20
2018-01-05T21:18:37.151Z,9.30
2018-01-05T21:21:04.715Z,9.20
2018-01-05T21:23:32.247Z,9.30
2018-01-05T21:25:59.803Z,9.40
2018-01-05T21:28:27.331Z,9.30
2018-01-05T21:30:55.639Z,9.40
2018-01-05T21:33:24.122Z,9.40
2018-01-05T21:35:51.647Z,9.40
2018-01-05T21:38:19.188Z,9.40
2018-01-05T21:40:46.709Z,9.50
2018-01-05T21:43:14.256Z,9.50
2018-01-05T21:45:42.752Z,9.40
2018-01-05T21:48:10.290Z,9.40
2018-01-05T21:50:37.829Z,9.20
2018-01-05T21:53:05.379Z,9.30
2018-01-05T21:55:33.666Z,9.40
2018-01-05T21:58:01.190Z,9.40
2018-01-05T22:00:28.743Z,9.30
2018-01-05T22:02:56.264Z,9.30
2018-01-05T22:05:23.829Z,9.30
2018-01-05T22:07:51.361Z,9.40
2018-01-05T22:10:18.984Z,9.40
2018-01-05T22:12:46.674Z,9.20
2018-01-05T22:15:14.357Z,9.30
2018-01-05T22:17:42.019Z,9.40
2018-01-05T22:20:09.572Z,9.30
2018-01-05T22:22:37.084Z,9.30
2018-01-05T22:25:04.600Z,9.30
2018-01-05T22:27:32.155Z,9.00
2018-01-05T22:29:59.682Z,9.10
2018-01-05T22:32:27.236Z,9.20
2018-01-05T22:34:55.566Z,9.30
2018-01-05T22:37:25.087Z,9.20
2018-01-05T22:39:52.626Z,9.10
2018-01-05T22:42:20.159Z,9.10
2018-01-05T22:44:47.710Z,9.10
2018-01-05T22:47:16.255Z,9.10
2018-01-05T22:49:45.783Z,9.10
2018-01-05T22:52:14.079Z,9.10
2018-01-05T22:54:41.620Z,9.10
2018-01-05T22:57:09.913Z,9.10
2018-01-05T22:59:39.472Z,9.10
2018-01-05T23:02:06.991Z,9.20
2018-01-05T23:04:34.538Z,9.30
2018-01-05T23:07:02.069Z,9.20
2018-01-05T23:09:30.354Z,9.20
2018-01-05T23:11:58.671Z,9.20
2018-01-05T23:14:26.194Z,9.20
2018-01-05T23:16:54.507Z,9.10
2018-01-05T23:19:22.086Z,9.10
2018-01-05T23:21:49.667Z,9.10
2018-01-05T23:24:17.188Z,9.10
2018-01-05T23:26:45.717Z,9.10
2018-01-05T23:29:13.240Z,9.00
2018-01-05T23:31:40.767Z,8.90
2018-01-05T23:34:08.616Z,9.00
2018-01-05T23:36:36.908Z,8.90
2018-01-05T23:39:04.450Z,8.90
2018-01-05T23:41:32.730Z,8.90
2018-01-05T23:44:00.271Z,8.90
2018-01-05T23:46:28.554Z,8.90
2018-01-05T23:48:58.805Z,8.90
2018-01-05T23:51:26.329Z,8.90
2018-01-05T23:53:53.852Z,8.90
2018-01-05T23:56:23.346Z,8.90
2018-01-05T23:58:50.887Z,8.90
